sensor_id;sensor_type;location;lat;lon;timestamp;P1;durP1;ratioP1;P2;durP2;ratioP2
13795;SDS011;40911;51.552;9.874;2023-02-16T00:04:29;39.83;;;19.25;;
13795;SDS011;40911;51.552;9.874;2023-02-16T00:06:51;37.63;;;19.13;;
13795;SDS011;40911;51.552;9.874;2023-02-16T00:09:14;41.15;;;20.15;;
13795;SDS011;40911;51.552;9.874;2023-02-16T00:11:36;39.75;;;19.70;;
13795;SDS011;40911;51.552;9.874;2023-02-16T00:14:16;38.08;;;20.20;;
13795;SDS011;40911;51.552;9.874;2023-02-16T00:16:41;36.97;;;19.73;;
13795;SDS011;40911;51.552;9.874;2023-02-16T00:19:14;37.05;;;20.75;;
13795;SDS011;40911;51.552;9.874;2023-02-16T00:21:37;41.45;;;21.13;;
13795;SDS011;40911;51.552;9.874;2023-02-16T00:23:59;39.45;;;21.50;;
13795;SDS011;40911;51.552;9.874;2023-02-16T00:26:21;39.67;;;20.98;;
13795;SDS011;40911;51.552;9.874;2023-02-16T00:28:44;43.97;;;21.65;;
13795;SDS011;40911;51.552;9.874;2023-02-16T00:31:14;44.17;;;22.52;;
13795;SDS011;40911;51.552;9.874;2023-02-16T00:33:38;47.55;;;23.15;;
13795;SDS011;40911;51.552;9.874;2023-02-16T00:36:00;43.72;;;21.70;;
13795;SDS011;40911;51.552;9.874;2023-02-16T00:38:21;45.05;;;21.38;;
13795;SDS011;40911;51.552;9.874;2023-02-16T00:40:43;43.10;;;22.30;;
13795;SDS011;40911;51.552;9.874;2023-02-16T00:45:26;46.25;;;21.55;;
13795;SDS011;40911;51.552;9.874;2023-02-16T00:47:50;37.30;;;20.58;;
13795;SDS011;40911;51.552;9.874;2023-02-16T00:50:17;40.17;;;20.48;;
13795;SDS011;40911;51.552;9.874;2023-02-16T00:52:47;46.85;;;21.48;;
13795;SDS011;40911;51.552;9.874;2023-02-16T00:55:11;41.70;;;21.55;;
13795;SDS011;40911;51.552;9.874;2023-02-16T00:57:34;40.92;;;19.58;;
13795;SDS011;40911;51.552;9.874;2023-02-16T01:00:01;40.22;;;19.83;;
13795;SDS011;40911;51.552;9.874;2023-02-16T01:02:25;41.13;;;21.90;;
13795;SDS011;40911;51.552;9.874;2023-02-16T01:07:10;42.45;;;19.90;;
13795;SDS011;40911;51.552;9.874;2023-02-16T01:09:50;44.05;;;21.83;;
13795;SDS011;40911;51.552;9.874;2023-02-16T01:12:26;49.17;;;21.92;;
13795;SDS011;40911;51.552;9.874;2023-02-16T01:14:49;45.22;;;22.80;;
13795;SDS011;40911;51.552;9.874;2023-02-16T01:17:12;42.88;;;22.95;;
13795;SDS011;40911;51.552;9.874;2023-02-16T01:19:34;47.58;;;22.13;;
13795;SDS011;40911;51.552;9.874;2023-02-16T01:21:57;42.90;;;22.25;;
13795;SDS011;40911;51.552;9.874;2023-02-16T01:24:18;47.75;;;23.63;;
13795;SDS011;40911;51.552;9.874;2023-02-16T01:26:41;46.08;;;23.13;;
13795;SDS011;40911;51.552;9.874;2023-02-16T01:29:05;44.45;;;22.30;;
13795;SDS011;40911;51.552;9.874;2023-02-16T01:31:27;42.72;;;21.52;;
13795;SDS011;40911;51.552;9.874;2023-02-16T01:33:49;42.70;;;22.15;;
13795;SDS011;40911;51.552;9.874;2023-02-16T01:36:17;39.10;;;21.02;;
13795;SDS011;40911;51.552;9.874;2023-02-16T01:38:44;41.45;;;20.70;;
13795;SDS011;40911;51.552;9.874;2023-02-16T01:41:08;39.85;;;21.08;;
13795;SDS011;40911;51.552;9.874;2023-02-16T01:43:43;40.75;;;20.88;;
13795;SDS011;40911;51.552;9.874;2023-02-16T01:46:10;41.20;;;20.00;;
13795;SDS011;40911;51.552;9.874;2023-02-16T01:48:34;39.22;;;20.92;;
13795;SDS011;40911;51.552;9.874;2023-02-16T01:50:58;37.22;;;20.05;;
13795;SDS011;40911;51.552;9.874;2023-02-16T01:53:26;40.28;;;19.50;;
13795;SDS011;40911;51.552;9.874;2023-02-16T01:55:53;40.80;;;20.10;;
13795;SDS011;40911;51.552;9.874;2023-02-16T01:58:19;41.30;;;21.42;;
13795;SDS011;40911;51.552;9.874;2023-02-16T02:03:50;37.10;;;18.60;;
13795;SDS011;40911;51.552;9.874;2023-02-16T02:06:30;35.97;;;19.95;;
13795;SDS011;40911;51.552;9.874;2023-02-16T02:08:55;33.80;;;19.08;;
13795;SDS011;40911;51.552;9.874;2023-02-16T02:11:23;41.55;;;20.52;;
13795;SDS011;40911;51.552;9.874;2023-02-16T02:13:51;42.08;;;19.55;;
13795;SDS011;40911;51.552;9.874;2023-02-16T02:16:16;39.00;;;19.58;;
13795;SDS011;40911;51.552;9.874;2023-02-16T02:18:39;39.10;;;19.77;;
13795;SDS011;40911;51.552;9.874;2023-02-16T02:24:22;36.67;;;18.85;;
13795;SDS011;40911;51.552;9.874;2023-02-16T02:27:08;35.88;;;18.20;;
13795;SDS011;40911;51.552;9.874;2023-02-16T02:29:41;41.55;;;20.33;;
13795;SDS011;40911;51.552;9.874;2023-02-16T02:32:26;38.17;;;19.58;;
13795;SDS011;40911;51.552;9.874;2023-02-16T02:35:00;35.05;;;19.55;;
13795;SDS011;40911;51.552;9.874;2023-02-16T02:37:35;35.65;;;19.65;;
13795;SDS011;40911;51.552;9.874;2023-02-16T02:40:05;41.53;;;20.00;;
13795;SDS011;40911;51.552;9.874;2023-02-16T02:42:35;42.47;;;20.58;;
13795;SDS011;40911;51.552;9.874;2023-02-16T02:45:01;38.70;;;20.45;;
13795;SDS011;40911;51.552;9.874;2023-02-16T02:47:38;37.92;;;20.40;;
13795;SDS011;40911;51.552;9.874;2023-02-16T02:50:00;36.60;;;19.10;;
13795;SDS011;40911;51.552;9.874;2023-02-16T02:52:22;40.67;;;20.67;;
13795;SDS011;40911;51.552;9.874;2023-02-16T02:54:43;39.47;;;20.10;;
13795;SDS011;40911;51.552;9.874;2023-02-16T02:57:26;42.13;;;20.48;;
13795;SDS011;40911;51.552;9.874;2023-02-16T03:00:11;40.72;;;19.70;;
13795;SDS011;40911;51.552;9.874;2023-02-16T03:02:56;39.75;;;19.83;;
13795;SDS011;40911;51.552;9.874;2023-02-16T03:05:23;37.47;;;19.90;;
13795;SDS011;40911;51.552;9.874;2023-02-16T03:07:48;38.60;;;20.10;;
13795;SDS011;40911;51.552;9.874;2023-02-16T03:10:13;38.08;;;19.92;;
13795;SDS011;40911;51.552;9.874;2023-02-16T03:12:54;39.85;;;20.15;;
13795;SDS011;40911;51.552;9.874;2023-02-16T03:15:18;38.10;;;19.33;;
13795;SDS011;40911;51.552;9.874;2023-02-16T03:17:40;43.30;;;20.33;;
13795;SDS011;40911;51.552;9.874;2023-02-16T03:20:20;36.50;;;19.65;;
13795;SDS011;40911;51.552;9.874;2023-02-16T03:22:59;39.03;;;20.13;;
13795;SDS011;40911;51.552;9.874;2023-02-16T03:25:41;36.83;;;20.58;;
13795;SDS011;40911;51.552;9.874;2023-02-16T03:28:21;41.85;;;20.02;;
13795;SDS011;40911;51.552;9.874;2023-02-16T03:31:04;39.47;;;20.35;;
13795;SDS011;40911;51.552;9.874;2023-02-16T03:33:28;40.13;;;20.17;;
13795;SDS011;40911;51.552;9.874;2023-02-16T03:35:51;41.97;;;20.95;;
13795;SDS011;40911;51.552;9.874;2023-02-16T03:38:13;42.40;;;20.45;;
13795;SDS011;40911;51.552;9.874;2023-02-16T03:43:00;49.47;;;21.65;;
13795;SDS011;40911;51.552;9.874;2023-02-16T03:45:23;44.80;;;21.75;;
13795;SDS011;40911;51.552;9.874;2023-02-16T03:47:47;44.30;;;22.25;;
13795;SDS011;40911;51.552;9.874;2023-02-16T03:50:09;48.25;;;21.55;;
13795;SDS011;40911;51.552;9.874;2023-02-16T03:52:31;44.05;;;21.73;;
13795;SDS011;40911;51.552;9.874;2023-02-16T03:54:52;43.38;;;20.67;;
13795;SDS011;40911;51.552;9.874;2023-02-16T03:57:14;42.65;;;21.55;;
13795;SDS011;40911;51.552;9.874;2023-02-16T03:59:36;42.35;;;21.40;;
13795;SDS011;40911;51.552;9.874;2023-02-16T04:01:57;47.60;;;22.55;;
13795;SDS011;40911;51.552;9.874;2023-02-16T04:06:42;43.17;;;20.42;;
13795;SDS011;40911;51.552;9.874;2023-02-16T04:09:03;42.95;;;20.65;;
13795;SDS011;40911;51.552;9.874;2023-02-16T04:11:25;48.83;;;22.00;;
13795;SDS011;40911;51.552;9.874;2023-02-16T04:14:04;47.60;;;21.40;;
13795;SDS011;40911;51.552;9.874;2023-02-16T04:18:47;43.33;;;20.60;;
13795;SDS011;40911;51.552;9.874;2023-02-16T04:21:11;43.53;;;22.13;;
13795;SDS011;40911;51.552;9.874;2023-02-16T04:23:32;42.33;;;20.38;;
13795;SDS011;40911;51.552;9.874;2023-02-16T04:25:54;43.00;;;21.27;;
13795;SDS011;40911;51.552;9.874;2023-02-16T04:28:16;45.55;;;22.15;;
13795;SDS011;40911;51.552;9.874;2023-02-16T04:30:37;47.78;;;22.27;;
13795;SDS011;40911;51.552;9.874;2023-02-16T04:32:59;45.60;;;22.00;;
13795;SDS011;40911;51.552;9.874;2023-02-16T04:35:20;47.38;;;22.13;;
13795;SDS011;40911;51.552;9.874;2023-02-16T04:37:44;43.60;;;22.45;;
13795;SDS011;40911;51.552;9.874;2023-02-16T04:40:12;43.90;;;20.77;;
13795;SDS011;40911;51.552;9.874;2023-02-16T04:42:35;46.92;;;22.45;;
13795;SDS011;40911;51.552;9.874;2023-02-16T04:44:58;54.50;;;22.08;;
13795;SDS011;40911;51.552;9.874;2023-02-16T04:47:20;49.10;;;22.42;;
13795;SDS011;40911;51.552;9.874;2023-02-16T04:49:44;45.03;;;23.00;;
13795;SDS011;40911;51.552;9.874;2023-02-16T04:52:06;44.90;;;21.95;;
13795;SDS011;40911;51.552;9.874;2023-02-16T04:54:29;43.83;;;22.33;;
13795;SDS011;40911;51.552;9.874;2023-02-16T04:56:51;49.80;;;23.83;;
13795;SDS011;40911;51.552;9.874;2023-02-16T04:59:13;55.80;;;24.15;;
13795;SDS011;40911;51.552;9.874;2023-02-16T05:01:36;48.47;;;23.00;;
13795;SDS011;40911;51.552;9.874;2023-02-16T05:03:57;56.90;;;26.33;;
13795;SDS011;40911;51.552;9.874;2023-02-16T05:06:19;46.75;;;22.13;;
13795;SDS011;40911;51.552;9.874;2023-02-16T05:08:41;54.83;;;24.15;;
13795;SDS011;40911;51.552;9.874;2023-02-16T05:11:04;50.10;;;24.20;;
13795;SDS011;40911;51.552;9.874;2023-02-16T05:13:43;62.40;;;25.40;;
13795;SDS011;40911;51.552;9.874;2023-02-16T05:16:22;58.58;;;26.58;;
13795;SDS011;40911;51.552;9.874;2023-02-16T05:18:44;54.22;;;24.88;;
13795;SDS011;40911;51.552;9.874;2023-02-16T05:21:06;52.30;;;24.27;;
13795;SDS011;40911;51.552;9.874;2023-02-16T05:23:45;55.10;;;25.10;;
13795;SDS011;40911;51.552;9.874;2023-02-16T05:26:08;55.13;;;24.55;;
13795;SDS011;40911;51.552;9.874;2023-02-16T05:28:30;54.08;;;24.27;;
13795;SDS011;40911;51.552;9.874;2023-02-16T05:30:52;61.63;;;25.25;;
13795;SDS011;40911;51.552;9.874;2023-02-16T05:33:14;53.22;;;23.88;;
13795;SDS011;40911;51.552;9.874;2023-02-16T05:35:35;55.13;;;24.10;;
13795;SDS011;40911;51.552;9.874;2023-02-16T05:37:57;61.10;;;23.33;;
13795;SDS011;40911;51.552;9.874;2023-02-16T05:40:19;55.85;;;26.48;;
13795;SDS011;40911;51.552;9.874;2023-02-16T05:42:42;55.22;;;25.60;;
13795;SDS011;40911;51.552;9.874;2023-02-16T05:45:03;57.67;;;25.33;;
13795;SDS011;40911;51.552;9.874;2023-02-16T05:47:25;54.42;;;24.58;;
13795;SDS011;40911;51.552;9.874;2023-02-16T05:49:47;58.65;;;25.00;;
13795;SDS011;40911;51.552;9.874;2023-02-16T05:52:08;54.83;;;25.38;;
13795;SDS011;40911;51.552;9.874;2023-02-16T05:54:30;57.13;;;25.00;;
13795;SDS011;40911;51.552;9.874;2023-02-16T05:56:52;54.30;;;24.45;;
13795;SDS011;40911;51.552;9.874;2023-02-16T05:59:15;60.53;;;25.05;;
13795;SDS011;40911;51.552;9.874;2023-02-16T06:01:37;53.92;;;23.65;;
13795;SDS011;40911;51.552;9.874;2023-02-16T06:04:00;53.72;;;24.38;;
13795;SDS011;40911;51.552;9.874;2023-02-16T06:06:21;55.72;;;24.80;;
13795;SDS011;40911;51.552;9.874;2023-02-16T06:08:43;60.55;;;24.23;;
13795;SDS011;40911;51.552;9.874;2023-02-16T06:11:05;54.90;;;25.30;;
13795;SDS011;40911;51.552;9.874;2023-02-16T06:18:32;43.60;;;20.85;;
13795;SDS011;40911;51.552;9.874;2023-02-16T06:20:55;53.25;;;22.80;;
13795;SDS011;40911;51.552;9.874;2023-02-16T06:23:17;53.40;;;22.77;;
13795;SDS011;40911;51.552;9.874;2023-02-16T06:28:01;47.80;;;23.35;;
13795;SDS011;40911;51.552;9.874;2023-02-16T06:30:24;48.35;;;23.58;;
13795;SDS011;40911;51.552;9.874;2023-02-16T06:32:47;49.13;;;23.67;;
13795;SDS011;40911;51.552;9.874;2023-02-16T06:35:09;63.25;;;25.33;;
13795;SDS011;40911;51.552;9.874;2023-02-16T06:37:31;61.85;;;25.60;;
13795;SDS011;40911;51.552;9.874;2023-02-16T06:39:53;60.85;;;25.98;;
13795;SDS011;40911;51.552;9.874;2023-02-16T06:42:14;54.70;;;25.10;;
13795;SDS011;40911;51.552;9.874;2023-02-16T06:44:36;48.65;;;23.45;;
13795;SDS011;40911;51.552;9.874;2023-02-16T06:47:03;57.35;;;25.55;;
13795;SDS011;40911;51.552;9.874;2023-02-16T06:49:31;55.70;;;25.90;;
13795;SDS011;40911;51.552;9.874;2023-02-16T06:51:52;55.10;;;24.58;;
13795;SDS011;40911;51.552;9.874;2023-02-16T06:54:14;54.60;;;24.83;;
13795;SDS011;40911;51.552;9.874;2023-02-16T06:56:37;50.33;;;23.38;;
13795;SDS011;40911;51.552;9.874;2023-02-16T07:01:20;50.15;;;23.77;;
13795;SDS011;40911;51.552;9.874;2023-02-16T07:03:44;50.03;;;23.70;;
13795;SDS011;40911;51.552;9.874;2023-02-16T07:06:07;56.65;;;25.08;;
13795;SDS011;40911;51.552;9.874;2023-02-16T07:08:29;55.45;;;24.50;;
13795;SDS011;40911;51.552;9.874;2023-02-16T07:10:51;57.45;;;27.45;;
13795;SDS011;40911;51.552;9.874;2023-02-16T07:13:14;57.15;;;25.52;;
13795;SDS011;40911;51.552;9.874;2023-02-16T07:15:35;57.88;;;25.58;;
13795;SDS011;40911;51.552;9.874;2023-02-16T07:17:57;56.80;;;26.10;;
13795;SDS011;40911;51.552;9.874;2023-02-16T07:20:18;54.95;;;25.55;;
13795;SDS011;40911;51.552;9.874;2023-02-16T07:25:03;57.30;;;25.17;;
13795;SDS011;40911;51.552;9.874;2023-02-16T07:27:25;52.05;;;24.80;;
13795;SDS011;40911;51.552;9.874;2023-02-16T07:29:47;50.75;;;24.17;;
13795;SDS011;40911;51.552;9.874;2023-02-16T07:32:08;50.92;;;25.00;;
13795;SDS011;40911;51.552;9.874;2023-02-16T07:34:30;54.08;;;23.98;;
13795;SDS011;40911;51.552;9.874;2023-02-16T07:39:15;51.55;;;23.92;;
13795;SDS011;40911;51.552;9.874;2023-02-16T07:41:36;46.08;;;23.20;;
13795;SDS011;40911;51.552;9.874;2023-02-16T07:43:58;56.92;;;26.13;;
13795;SDS011;40911;51.552;9.874;2023-02-16T07:46:19;54.35;;;28.08;;
13795;SDS011;40911;51.552;9.874;2023-02-16T07:48:41;47.03;;;23.25;;
13795;SDS011;40911;51.552;9.874;2023-02-16T07:51:03;50.47;;;24.58;;
13795;SDS011;40911;51.552;9.874;2023-02-16T07:53:25;51.65;;;24.40;;
13795;SDS011;40911;51.552;9.874;2023-02-16T07:55:48;48.45;;;24.30;;
13795;SDS011;40911;51.552;9.874;2023-02-16T07:58:09;49.55;;;24.52;;
13795;SDS011;40911;51.552;9.874;2023-02-16T08:00:46;50.95;;;24.05;;
13795;SDS011;40911;51.552;9.874;2023-02-16T08:03:07;45.25;;;23.25;;
13795;SDS011;40911;51.552;9.874;2023-02-16T08:05:29;50.63;;;24.25;;
13795;SDS011;40911;51.552;9.874;2023-02-16T08:07:51;45.83;;;23.00;;
13795;SDS011;40911;51.552;9.874;2023-02-16T08:10:13;47.58;;;24.17;;
13795;SDS011;40911;51.552;9.874;2023-02-16T08:12:36;45.85;;;23.67;;
13795;SDS011;40911;51.552;9.874;2023-02-16T08:14:58;44.63;;;23.67;;
13795;SDS011;40911;51.552;9.874;2023-02-16T08:17:20;45.55;;;23.10;;
13795;SDS011;40911;51.552;9.874;2023-02-16T08:19:41;44.63;;;21.98;;
13795;SDS011;40911;51.552;9.874;2023-02-16T08:22:03;46.20;;;23.27;;
13795;SDS011;40911;51.552;9.874;2023-02-16T08:24:25;43.85;;;23.00;;
13795;SDS011;40911;51.552;9.874;2023-02-16T08:26:47;45.22;;;22.88;;
13795;SDS011;40911;51.552;9.874;2023-02-16T08:29:11;43.67;;;23.48;;
13795;SDS011;40911;51.552;9.874;2023-02-16T08:31:34;47.42;;;24.23;;
13795;SDS011;40911;51.552;9.874;2023-02-16T08:33:58;39.85;;;22.20;;
13795;SDS011;40911;51.552;9.874;2023-02-16T08:36:21;41.13;;;22.30;;
13795;SDS011;40911;51.552;9.874;2023-02-16T08:38:45;44.60;;;22.58;;
13795;SDS011;40911;51.552;9.874;2023-02-16T08:41:09;43.92;;;22.45;;
13795;SDS011;40911;51.552;9.874;2023-02-16T08:43:31;40.30;;;22.38;;
13795;SDS011;40911;51.552;9.874;2023-02-16T08:45:54;40.47;;;21.58;;
13795;SDS011;40911;51.552;9.874;2023-02-16T08:48:16;38.67;;;21.23;;
13795;SDS011;40911;51.552;9.874;2023-02-16T08:50:41;42.72;;;21.83;;
13795;SDS011;40911;51.552;9.874;2023-02-16T08:53:06;44.10;;;21.95;;
13795;SDS011;40911;51.552;9.874;2023-02-16T08:55:27;37.85;;;21.23;;
13795;SDS011;40911;51.552;9.874;2023-02-16T09:00:11;37.83;;;20.70;;
13795;SDS011;40911;51.552;9.874;2023-02-16T09:02:53;38.92;;;20.75;;
13795;SDS011;40911;51.552;9.874;2023-02-16T09:05:18;37.40;;;21.10;;
13795;SDS011;40911;51.552;9.874;2023-02-16T09:07:40;37.85;;;20.13;;
13795;SDS011;40911;51.552;9.874;2023-02-16T09:12:23;34.80;;;19.80;;
13795;SDS011;40911;51.552;9.874;2023-02-16T09:14:45;34.45;;;19.65;;
13795;SDS011;40911;51.552;9.874;2023-02-16T09:17:06;34.78;;;20.08;;
13795;SDS011;40911;51.552;9.874;2023-02-16T09:19:30;36.22;;;20.52;;
13795;SDS011;40911;51.552;9.874;2023-02-16T09:21:51;33.55;;;20.20;;
13795;SDS011;40911;51.552;9.874;2023-02-16T09:24:15;36.88;;;20.60;;
13795;SDS011;40911;51.552;9.874;2023-02-16T09:26:37;35.72;;;20.00;;
13795;SDS011;40911;51.552;9.874;2023-02-16T09:29:01;35.35;;;20.17;;
13795;SDS011;40911;51.552;9.874;2023-02-16T09:31:24;36.83;;;20.13;;
13795;SDS011;40911;51.552;9.874;2023-02-16T09:33:48;34.72;;;20.60;;
13795;SDS011;40911;51.552;9.874;2023-02-16T09:36:11;36.45;;;20.58;;
13795;SDS011;40911;51.552;9.874;2023-02-16T09:38:34;33.55;;;19.42;;
13795;SDS011;40911;51.552;9.874;2023-02-16T09:40:56;37.65;;;20.40;;
13795;SDS011;40911;51.552;9.874;2023-02-16T09:43:23;33.65;;;19.60;;
13795;SDS011;40911;51.552;9.874;2023-02-16T09:45:54;32.83;;;19.13;;
13795;SDS011;40911;51.552;9.874;2023-02-16T09:48:20;35.30;;;18.55;;
13795;SDS011;40911;51.552;9.874;2023-02-16T09:50:49;33.00;;;19.45;;
13795;SDS011;40911;51.552;9.874;2023-02-16T09:53:18;33.55;;;19.65;;
13795;SDS011;40911;51.552;9.874;2023-02-16T09:55:45;35.05;;;19.83;;
13795;SDS011;40911;51.552;9.874;2023-02-16T09:58:19;35.80;;;20.15;;
13795;SDS011;40911;51.552;9.874;2023-02-16T10:00:43;34.92;;;19.75;;
13795;SDS011;40911;51.552;9.874;2023-02-16T10:03:13;33.65;;;19.52;;
13795;SDS011;40911;51.552;9.874;2023-02-16T10:05:46;34.35;;;19.20;;
13795;SDS011;40911;51.552;9.874;2023-02-16T10:08:13;35.05;;;19.83;;
13795;SDS011;40911;51.552;9.874;2023-02-16T10:10:43;31.92;;;18.98;;
13795;SDS011;40911;51.552;9.874;2023-02-16T10:13:11;30.40;;;18.42;;
13795;SDS011;40911;51.552;9.874;2023-02-16T10:15:40;33.22;;;19.17;;
13795;SDS011;40911;51.552;9.874;2023-02-16T10:18:06;31.27;;;19.10;;
13795;SDS011;40911;51.552;9.874;2023-02-16T10:20:35;32.53;;;19.17;;
13795;SDS011;40911;51.552;9.874;2023-02-16T10:23:02;34.67;;;20.48;;
13795;SDS011;40911;51.552;9.874;2023-02-16T10:25:33;31.65;;;19.55;;
13795;SDS011;40911;51.552;9.874;2023-02-16T10:28:03;32.30;;;18.77;;
13795;SDS011;40911;51.552;9.874;2023-02-16T10:30:34;34.67;;;18.50;;
13795;SDS011;40911;51.552;9.874;2023-02-16T10:32:56;33.22;;;18.20;;
13795;SDS011;40911;51.552;9.874;2023-02-16T10:35:28;33.67;;;18.48;;
13795;SDS011;40911;51.552;9.874;2023-02-16T10:38:01;36.70;;;19.20;;
13795;SDS011;40911;51.552;9.874;2023-02-16T10:40:33;32.78;;;18.48;;
13795;SDS011;40911;51.552;9.874;2023-02-16T10:43:05;32.42;;;19.05;;
13795;SDS011;40911;51.552;9.874;2023-02-16T10:45:34;31.33;;;18.67;;
13795;SDS011;40911;51.552;9.874;2023-02-16T10:47:59;29.52;;;18.33;;
13795;SDS011;40911;51.552;9.874;2023-02-16T10:50:22;32.45;;;19.20;;
13795;SDS011;40911;51.552;9.874;2023-02-16T10:52:47;31.45;;;17.90;;
13795;SDS011;40911;51.552;9.874;2023-02-16T10:55:10;33.83;;;19.30;;
13795;SDS011;40911;51.552;9.874;2023-02-16T10:57:33;31.33;;;18.00;;
13795;SDS011;40911;51.552;9.874;2023-02-16T10:59:56;34.60;;;20.13;;
13795;SDS011;40911;51.552;9.874;2023-02-16T11:02:18;30.50;;;18.70;;
13795;SDS011;40911;51.552;9.874;2023-02-16T11:04:44;30.30;;;18.50;;
13795;SDS011;40911;51.552;9.874;2023-02-16T11:07:08;31.15;;;18.48;;
13795;SDS011;40911;51.552;9.874;2023-02-16T11:09:31;35.15;;;19.95;;
13795;SDS011;40911;51.552;9.874;2023-02-16T11:11:53;34.28;;;19.33;;
13795;SDS011;40911;51.552;9.874;2023-02-16T11:16:41;29.20;;;17.42;;
13795;SDS011;40911;51.552;9.874;2023-02-16T11:21:43;30.90;;;17.45;;
13795;SDS011;40911;51.552;9.874;2023-02-16T11:24:08;35.03;;;19.52;;
13795;SDS011;40911;51.552;9.874;2023-02-16T11:26:32;31.17;;;18.30;;
13795;SDS011;40911;51.552;9.874;2023-02-16T11:29:00;34.92;;;18.90;;
13795;SDS011;40911;51.552;9.874;2023-02-16T11:31:35;35.80;;;20.10;;
13795;SDS011;40911;51.552;9.874;2023-02-16T11:34:00;31.20;;;18.58;;
13795;SDS011;40911;51.552;9.874;2023-02-16T11:36:26;30.75;;;18.55;;
13795;SDS011;40911;51.552;9.874;2023-02-16T11:38:56;26.95;;;17.17;;
13795;SDS011;40911;51.552;9.874;2023-02-16T11:41:20;31.00;;;16.65;;
13795;SDS011;40911;51.552;9.874;2023-02-16T11:43:44;29.02;;;17.77;;
13795;SDS011;40911;51.552;9.874;2023-02-16T11:46:06;27.67;;;16.58;;
13795;SDS011;40911;51.552;9.874;2023-02-16T11:48:36;29.02;;;16.88;;
13795;SDS011;40911;51.552;9.874;2023-02-16T11:50:59;27.40;;;16.55;;
13795;SDS011;40911;51.552;9.874;2023-02-16T11:53:24;32.13;;;17.90;;
13795;SDS011;40911;51.552;9.874;2023-02-16T11:55:47;30.58;;;17.92;;
13795;SDS011;40911;51.552;9.874;2023-02-16T11:58:17;28.60;;;17.42;;
13795;SDS011;40911;51.552;9.874;2023-02-16T12:00:40;29.17;;;17.20;;
13795;SDS011;40911;51.552;9.874;2023-02-16T12:03:14;27.95;;;16.83;;
13795;SDS011;40911;51.552;9.874;2023-02-16T12:05:46;22.80;;;12.77;;
13795;SDS011;40911;51.552;9.874;2023-02-16T12:08:23;24.27;;;14.88;;
13795;SDS011;40911;51.552;9.874;2023-02-16T12:10:58;22.05;;;14.27;;
13795;SDS011;40911;51.552;9.874;2023-02-16T12:13:27;23.95;;;13.65;;
13795;SDS011;40911;51.552;9.874;2023-02-16T12:15:57;24.08;;;14.45;;
13795;SDS011;40911;51.552;9.874;2023-02-16T12:18:26;23.88;;;14.77;;
13795;SDS011;40911;51.552;9.874;2023-02-16T12:21:00;26.02;;;15.73;;
13795;SDS011;40911;51.552;9.874;2023-02-16T12:23:34;24.75;;;15.27;;
13795;SDS011;40911;51.552;9.874;2023-02-16T12:26:03;25.67;;;15.13;;
13795;SDS011;40911;51.552;9.874;2023-02-16T12:28:36;25.20;;;15.13;;
13795;SDS011;40911;51.552;9.874;2023-02-16T12:40:56;25.38;;;14.70;;
13795;SDS011;40911;51.552;9.874;2023-02-16T12:43:28;25.67;;;15.38;;
13795;SDS011;40911;51.552;9.874;2023-02-16T12:45:55;25.70;;;15.75;;
13795;SDS011;40911;51.552;9.874;2023-02-16T12:48:24;24.13;;;15.48;;
13795;SDS011;40911;51.552;9.874;2023-02-16T12:50:53;24.88;;;15.27;;
13795;SDS011;40911;51.552;9.874;2023-02-16T12:53:55;24.92;;;14.95;;
13795;SDS011;40911;51.552;9.874;2023-02-16T12:56:22;23.90;;;15.10;;
13795;SDS011;40911;51.552;9.874;2023-02-16T12:58:48;24.70;;;15.57;;
13795;SDS011;40911;51.552;9.874;2023-02-16T13:01:14;27.65;;;14.70;;
13795;SDS011;40911;51.552;9.874;2023-02-16T13:03:39;26.45;;;16.25;;
13795;SDS011;40911;51.552;9.874;2023-02-16T13:06:08;24.40;;;16.05;;
13795;SDS011;40911;51.552;9.874;2023-02-16T13:08:38;25.95;;;15.30;;
13795;SDS011;40911;51.552;9.874;2023-02-16T13:11:07;23.40;;;14.57;;
13795;SDS011;40911;51.552;9.874;2023-02-16T13:13:34;26.85;;;16.13;;
13795;SDS011;40911;51.552;9.874;2023-02-16T13:15:59;25.85;;;15.95;;
13795;SDS011;40911;51.552;9.874;2023-02-16T13:18:24;28.05;;;16.50;;
13795;SDS011;40911;51.552;9.874;2023-02-16T13:20:49;25.55;;;16.08;;
13795;SDS011;40911;51.552;9.874;2023-02-16T13:23:21;26.13;;;16.10;;
13795;SDS011;40911;51.552;9.874;2023-02-16T13:26:12;29.20;;;16.38;;
13795;SDS011;40911;51.552;9.874;2023-02-16T13:31:55;24.25;;;15.45;;
13795;SDS011;40911;51.552;9.874;2023-02-16T13:34:37;26.25;;;15.68;;
13795;SDS011;40911;51.552;9.874;2023-02-16T13:37:21;24.90;;;15.90;;
13795;SDS011;40911;51.552;9.874;2023-02-16T13:39:54;25.55;;;15.88;;
13795;SDS011;40911;51.552;9.874;2023-02-16T13:45:58;27.83;;;14.88;;
13795;SDS011;40911;51.552;9.874;2023-02-16T13:48:24;25.73;;;15.90;;
13795;SDS011;40911;51.552;9.874;2023-02-16T13:50:56;26.45;;;16.40;;
13795;SDS011;40911;51.552;9.874;2023-02-16T13:53:20;23.45;;;15.60;;
13795;SDS011;40911;51.552;9.874;2023-02-16T13:55:43;25.30;;;15.15;;
13795;SDS011;40911;51.552;9.874;2023-02-16T13:58:07;22.08;;;15.02;;
13795;SDS011;40911;51.552;9.874;2023-02-16T14:00:48;25.23;;;15.68;;
13795;SDS011;40911;51.552;9.874;2023-02-16T14:03:12;22.88;;;15.93;;
13795;SDS011;40911;51.552;9.874;2023-02-16T14:09:29;23.40;;;15.93;;
13795;SDS011;40911;51.552;9.874;2023-02-16T14:12:03;23.85;;;16.25;;
13795;SDS011;40911;51.552;9.874;2023-02-16T14:14:37;23.58;;;15.88;;
13795;SDS011;40911;51.552;9.874;2023-02-16T14:17:14;27.90;;;17.50;;
13795;SDS011;40911;51.552;9.874;2023-02-16T14:19:38;25.92;;;15.60;;
13795;SDS011;40911;51.552;9.874;2023-02-16T14:22:08;27.23;;;17.40;;
13795;SDS011;40911;51.552;9.874;2023-02-16T14:24:32;23.52;;;16.08;;
13795;SDS011;40911;51.552;9.874;2023-02-16T14:26:57;23.58;;;16.30;;
13795;SDS011;40911;51.552;9.874;2023-02-16T14:29:21;25.60;;;16.38;;
13795;SDS011;40911;51.552;9.874;2023-02-16T14:31:49;24.90;;;16.15;;
13795;SDS011;40911;51.552;9.874;2023-02-16T14:34:18;22.20;;;14.07;;
13795;SDS011;40911;51.552;9.874;2023-02-16T14:39:45;25.85;;;16.33;;
13795;SDS011;40911;51.552;9.874;2023-02-16T14:42:12;25.33;;;15.95;;
13795;SDS011;40911;51.552;9.874;2023-02-16T14:44:39;29.90;;;16.92;;
13795;SDS011;40911;51.552;9.874;2023-02-16T14:47:15;25.02;;;16.75;;
13795;SDS011;40911;51.552;9.874;2023-02-16T14:49:57;24.60;;;16.13;;
13795;SDS011;40911;51.552;9.874;2023-02-16T14:52:31;27.27;;;16.45;;
13795;SDS011;40911;51.552;9.874;2023-02-16T14:55:21;25.85;;;16.65;;
13795;SDS011;40911;51.552;9.874;2023-02-16T14:57:56;25.90;;;16.30;;
13795;SDS011;40911;51.552;9.874;2023-02-16T15:00:23;24.77;;;16.02;;
13795;SDS011;40911;51.552;9.874;2023-02-16T15:02:53;26.77;;;16.70;;
13795;SDS011;40911;51.552;9.874;2023-02-16T15:05:17;26.63;;;16.52;;
13795;SDS011;40911;51.552;9.874;2023-02-16T15:07:40;25.88;;;16.48;;
13795;SDS011;40911;51.552;9.874;2023-02-16T15:10:06;27.42;;;17.83;;
13795;SDS011;40911;51.552;9.874;2023-02-16T15:12:30;27.75;;;17.65;;
13795;SDS011;40911;51.552;9.874;2023-02-16T15:14:56;25.15;;;16.85;;
13795;SDS011;40911;51.552;9.874;2023-02-16T15:17:26;27.88;;;17.00;;
13795;SDS011;40911;51.552;9.874;2023-02-16T15:19:50;32.13;;;17.95;;
13795;SDS011;40911;51.552;9.874;2023-02-16T15:22:17;30.50;;;19.38;;
13795;SDS011;40911;51.552;9.874;2023-02-16T15:24:41;30.48;;;18.65;;